EBCI - Charleroi/Gosselies, Belgium
Distance de la station: NE 18km
Mise à jour: 24/05/2018 05:50
brume, partiellement nuageux
brume, partiellement nuageux
 Wind from E
Vent: E 4 km/h
Température: 14°C
Point de rosée: 13°C
Humidité: 94%
Baromètre: 1019 hPa
Résumé: brume
Ciel: partiellement nuageux
Visibilité: 4 km
2018/05/24 03:50 EBCI 240350Z 09002KT 4000 BR NSC 14/13 Q1019 NOSIG
EBFS - Florennes, Belgium
Distance de la station: ESE 31km
Mise à jour: 24/05/2018 05:55
nuageux
nuageux
 Wind from varies
Vent: varies 4 km/h
Température: 13°C
Point de rosée: 12°C
Humidité: 94%
Baromètre: 1019 hPa
Ciel: nuageux
Visibilité: 8 km
Détails du ciel: quelques nuages 2134 m
nuageux 4267 m
2018/05/24 03:55 EBFS 240355Z VRB02KT 8000 FEW070 BKN140 13/12 Q1019 BLU BLU TEMPO WHT
EBCV - Chievres, Belgium
Distance de la station: NO 40km
Mise à jour: 24/05/2018 05:55
brume, partiellement nuageux
brume, partiellement nuageux
 Wind from varies
Vent: varies 4 km/h
Température: 13°C
Point de rosée: 13°C
Humidité: 100%
Baromètre: 1019 hPa
Résumé: brume
Ciel: partiellement nuageux
Visibilité: 2 km
Détails du ciel: quelques nuages 3658 m
partiellement nuageux 4267 m
2018/05/24 03:55 EBCV 240355Z AUTO VRB02KT 1600 BR FEW120/// SCT140/// 13/13 Q1019 YLO
 
EBBE - Beauvechain, Belgium
Distance de la station: NE 57km
Mise à jour: 24/05/2018 05:55
brume, nuageux
brume, nuageux
 Wind from NNE
Vent: NNE 9 km/h
Température: 14°C
Point de rosée: 12°C
Humidité: 88%
Baromètre: 1019 hPa
Résumé: brume
Ciel: nuageux
Visibilité: 4 km
Détails du ciel: quelques nuages 2438 m
nuageux 7315 m
2018/05/24 03:55 EBBE 240355Z 03005KT 4200 BR FEW080 BKN240 14/12 Q1019 GRN GRN BECMG WHT
EBBR - Brussels National, Belgium
Distance de la station: NNE 63km
Mise à jour: 24/05/2018 05:50
Shallow fog, Few clouds
Shallow fog, Few clouds
 Wind from NE
Vent: NE 4 km/h
Température: 14°C
Point de rosée: 13°C
Humidité: 94%
Baromètre: 1019 hPa
Résumé: Shallow Fog
Ciel: quelques nuages
Visibilité: 10 km
Détails du ciel: quelques nuages 1219 m
2018/05/24 03:50 EBBR 240350Z 04002KT 9999 MIFG FEW040 14/13 Q1019 NOSIG
LFQI - Cambrai/Epinoy, France
Distance de la station: O 82km
Mise à jour: 29/06/2012 12:30
NOT Current

 Wind from SO
Vent: SO 17 km/h
Température: 18°C
Point de rosée: 14°C
Humidité: 78%
Baromètre: 1009 hPa
2012/06/29 10:30 LFQI 291030Z AUTO 22009KT //// // ///////// 18/14 Q1009
 
LFQQ - Lille/Lesquin, France
Distance de la station: ONO 86km
Mise à jour: 24/05/2018 06:00
partiellement nuageux
partiellement nuageux
 Wind from NE
Vent: NE 7 km/h
Température: 15°C
Point de rosée: 14°C
Humidité: 94%
Baromètre: 1018 hPa
Ciel: partiellement nuageux
Visibilité: 7 km
2018/05/24 04:00 LFQQ 240400Z AUTO 04004KT 7000 NSC 15/14 Q1018 BECMG 4000 BR
EBLG - Bierset/Liege, Belgium
Distance de la station: ENE 89km
Mise à jour: 24/05/2018 05:50
partiellement nuageux
partiellement nuageux
 Wind from NE
Vent: NE 11 km/h
Température: 13°C
Point de rosée: 12°C
Humidité: 94%
Baromètre: 1018 hPa
Ciel: partiellement nuageux
Visibilité: 7 km
2018/05/24 03:50 EBLG 240350Z 05006KT 7000 NSC 13/12 Q1018 NOSIG
EBDT - Schaffen, Belgium
Distance de la station: NE 93km
Mise à jour: 24/05/2018 05:55
partiellement nuageux
partiellement nuageux
 Wind from N
Vent: N 6 km/h
Température: 14°C
Point de rosée: 9°C
Humidité: 72%
Baromètre: 1019 hPa
Ciel: partiellement nuageux
Visibilité: 10 km
Détails du ciel: partiellement nuageux 4877 m
partiellement nuageux 7620 m
2018/05/24 03:55 EBDT 240355Z 01003KT 9999 SCT160 SCT250 14/09 Q1019 BLU BLU
 
EBAW - Antwerp/Deurne, Belgium
Distance de la station: N 96km
Mise à jour: 24/05/2018 05:50
clair
clair
 Wind from NNE
Vent: NNE 6 km/h
Température: 14°C
Point de rosée: 10°C
Humidité: 77%
Baromètre: 1019 hPa
Résumé: clair
Visibilité: greater than 10 km
2018/05/24 03:50 EBAW 240350Z AUTO 03003KT CAVOK 14/10 Q1019
LFAQ - Bray, France
Distance de la station: OSO 119km
Mise à jour: 24/05/2018 06:00
brume, partiellement nuageux
brume, partiellement nuageux
 Wind from varies
Vent: varies 0 km/h
Température: 14°C
Point de rosée: 14°C
Humidité: 100%
Baromètre: 1018 hPa
Résumé: brume
Ciel: partiellement nuageux
Visibilité: 3 km
2018/05/24 04:00 LFAQ 240400Z AUTO /////KT 2800 BR NSC 14/14 Q1018
LFSR - Reims/Champagne, France
Distance de la station: S 120km
Mise à jour: 16/04/2012 09:00
NOT Current
partiellement nuageux
partiellement nuageux
 Wind from N
Vent: N 17 km/h
Température: 4°C
Température ressentie: 0°C
Point de rosée: 0°C
Humidité: 75%
Baromètre: 1022 hPa
Ciel: partiellement nuageux
Visibilité: 10 km
2012/04/16 07:00 LFSR 160700Z AUTO 01009KT 340V070 9999 NSC 04/00 Q1022
 
EHWO - Woensdrecht, Netherlands
Distance de la station: N 122km
Mise à jour: 24/05/2018 05:55
clair
clair
 Wind from ENE
Vent: ENE 11 km/h
Température: 12°C
Point de rosée: 10°C
Humidité: 88%
Baromètre: 1019 hPa
Ciel: clair
Visibilité: 10 km
2018/05/24 03:55 EHWO 240355Z AUTO 06006KT 020V080 9999 NCD 12/10 Q1019 BLU
EHBK - Zuid-Limburg, Netherlands
Distance de la station: ENE 123km
Mise à jour: 24/05/2018 05:55
partiellement nuageux
partiellement nuageux
 Wind from NE
Vent: NE 11 km/h
Température: 14°C
Point de rosée: 10°C
Humidité: 77%
Baromètre: 1018 hPa
Ciel: partiellement nuageux
Visibilité: 10 km
2018/05/24 03:55 EHBK 240355Z AUTO 05006KT 9999 NSC 14/10 Q1018
EBBL - Kleine-Brogel, Belgium
Distance de la station: NE 124km
Mise à jour: 24/05/2018 05:55
partiellement nuageux
partiellement nuageux
 Wind from NE
Vent: NE 6 km/h
Température: 13°C
Point de rosée: 9°C
Humidité: 77%
Baromètre: 1019 hPa
Ciel: partiellement nuageux
Visibilité: 10 km
Détails du ciel: quelques nuages 5182 m
partiellement nuageux 7620 m
2018/05/24 03:55 EBBL 240355Z 05003KT 9999 FEW170 SCT250 13/09 Q1019 BLU
 
EBLB - Elsenborn, Belgium
Distance de la station: E 135km
Mise à jour: 24/05/2018 05:55
nuageux
nuageux
 Wind from varies
Vent: varies 0 km/h
Température: 11°C
Point de rosée: 10°C
Humidité: 94%
Baromètre: 1019 hPa
Ciel: nuageux
Visibilité: 10 km
Détails du ciel: nuageux 2896 m
2018/05/24 03:55 EBLB 240355Z AUTO //////KT 9999 BKN095/// 11/10 Q1019 BLU
EBOS - Oostende Airport, Belgium
Distance de la station: NO 136km
Mise à jour: 24/05/2018 05:50
quelques nuages
quelques nuages
 Wind from NE
Vent: NE 7 km/h
Température: 15°C
Point de rosée: 12°C
Humidité: 82%
Baromètre: 1019 hPa
Ciel: quelques nuages
Visibilité: 8 km
Détails du ciel: quelques nuages 914 m
2018/05/24 03:50 EBOS 240350Z 04004KT 8000 FEW030 15/12 Q1019 NOSIG
EBFN - Koksijde, Belgium
Distance de la station: NO 140km
Mise à jour: 24/05/2018 05:55
brume, nuageux
brume, nuageux
 Wind from NE
Vent: NE 6 km/h
Température: 14°C
Point de rosée: 14°C
Humidité: 100%
Baromètre: 1019 hPa
Résumé: brume
Ciel: nuageux
Visibilité: 2 km
Détails du ciel: nuageux 3658 m
nuageux 4572 m
2018/05/24 03:55 EBFN 240355Z 04003KT 2300 BR BKN120 BKN150 14/14 Q1019 YLO
 
ETNG - Geilenkirchen, Germany
Distance de la station: ENE 142km
Mise à jour: 24/05/2018 05:50
clair
clair
 Wind from E
Vent: E 2 km/h
Température: 13°C
Point de rosée: 11°C
Humidité: 88%
Baromètre: 1019 hPa
Résumé: clair
Visibilité: greater than 10 km
2018/05/24 03:50 ETNG 240350Z 08001KT CAVOK 13/11 Q1019
EHGR - Gilze-Rijen, Netherlands
Distance de la station: NNE 143km
Mise à jour: 24/05/2018 05:55
quelques nuages
quelques nuages
 Wind from NNE
Vent: NNE 7 km/h
Température: 14°C
Point de rosée: 9°C
Humidité: 72%
Baromètre: 1019 hPa
Ciel: quelques nuages
Visibilité: 10 km
Détails du ciel: quelques nuages 2408 m
2018/05/24 03:55 EHGR 240355Z AUTO 03004KT 350V100 9999 FEW079 14/09 Q1019 BLU
EHEH - Eindhoven, Netherlands
Distance de la station: NNE 147km
Mise à jour: 24/05/2018 05:55
clair
clair
 Wind from NE
Vent: NE 13 km/h
Température: 16°C
Point de rosée: 8°C
Humidité: 59%
Baromètre: 1019 hPa
Ciel: clair
Visibilité: 10 km
2018/05/24 03:55 EHEH 240355Z AUTO 05007KT 9999 NCD 16/08 Q1019 BLU
 
ELLX - Luxembourg, Luxembourg
Distance de la station: ESE 162km
Mise à jour: 24/05/2018 05:50
clair
clair
 Wind from NE
Vent: NE 11 km/h
Température: 14°C
Point de rosée: 13°C
Humidité: 94%
Baromètre: 1018 hPa
Résumé: clair
Visibilité: greater than 10 km
2018/05/24 03:50 ELLX 240350Z 05006KT CAVOK 14/13 Q1018 NOSIG
EHVK - Volkel, Netherlands
Distance de la station: NE 174km
Mise à jour: 24/05/2018 05:55
quelques nuages
quelques nuages
 Wind from NE
Vent: NE 13 km/h
Température: 15°C
Point de rosée: 8°C
Humidité: 63%
Baromètre: 1019 hPa
Ciel: quelques nuages
Visibilité: 10 km
Détails du ciel: quelques nuages 2164 m
2018/05/24 03:55 EHVK 240355Z AUTO 04007KT 9999 FEW071 15/08 Q1019 BLU
LFOK - Chalons/Vatry, France
Distance de la station: S 174km
Mise à jour: 24/05/2018 06:00

 Wind from varies
Vent: varies 2 km/h
Visibilité: 0 km
2018/05/24 04:00 LFOK 240400Z AUTO VRB01KT 0250 0150 R10/0200N R28/0800U FG VV/// 14/13 Q1017 NOSIG

Script from Saratoga-Weather.org